sensor_id;sensor_type;location;lat;lon;timestamp;pressure;altitude;pressure_sealevel;temperature;humidity
52032;BME280;38044;45.148;39.604;2023-01-24T00:01:28;102462.34;;;-2.15;81.36
52032;BME280;38044;45.148;39.604;2023-01-24T00:03:54;102563.03;;;-1.52;81.47
52032;BME280;38044;45.148;39.604;2023-01-24T00:06:20;102543.56;;;-1.68;81.55
52032;BME280;38044;45.148;39.604;2023-01-24T00:08:46;102545.38;;;-1.68;81.54
52032;BME280;38044;45.148;39.604;2023-01-24T00:11:12;102430.00;;;-2.41;81.56
52032;BME280;38044;45.148;39.604;2023-01-24T00:13:38;102521.09;;;-1.88;81.65
52032;BME280;38044;45.148;39.604;2023-01-24T00:16:14;102566.31;;;-1.67;81.68
52032;BME280;38044;45.148;39.604;2023-01-24T00:18:41;102551.91;;;-1.81;81.75
52032;BME280;38044;45.148;39.604;2023-01-24T00:21:13;102527.34;;;-1.89;81.95
52032;BME280;38044;45.148;39.604;2023-01-24T00:23:45;102476.16;;;-2.29;81.96
52032;BME280;38044;45.148;39.604;2023-01-24T00:26:12;102405.19;;;-2.73;81.67
52032;BME280;38044;45.148;39.604;2023-01-24T00:28:39;102521.22;;;-1.98;81.57
52032;BME280;38044;45.148;39.604;2023-01-24T00:31:05;102428.59;;;-2.62;81.70
52032;BME280;38044;45.148;39.604;2023-01-24T00:33:32;102552.88;;;-1.90;82.13
52032;BME280;38044;45.148;39.604;2023-01-24T00:35:58;102513.09;;;-2.13;82.08
52032;BME280;38044;45.148;39.604;2023-01-24T00:38:24;102503.69;;;-2.15;81.98
52032;BME280;38044;45.148;39.604;2023-01-24T00:40:50;102430.56;;;-2.64;81.72
52032;BME280;38044;45.148;39.604;2023-01-24T00:43:16;102555.34;;;-1.96;81.94
52032;BME280;38044;45.148;39.604;2023-01-24T00:45:43;102524.69;;;-2.06;81.88
52032;BME280;38044;45.148;39.604;2023-01-24T00:48:10;102526.47;;;-2.06;81.84
52032;BME280;38044;45.148;39.604;2023-01-24T00:50:36;102540.53;;;-1.97;82.16
52032;BME280;38044;45.148;39.604;2023-01-24T00:53:02;102448.41;;;-2.50;82.19
52032;BME280;38044;45.148;39.604;2023-01-24T00:55:29;102436.22;;;-2.51;81.96
52032;BME280;38044;45.148;39.604;2023-01-24T00:57:55;102555.41;;;-1.72;82.12
52032;BME280;38044;45.148;39.604;2023-01-24T01:00:21;102522.56;;;-1.94;82.20
52032;BME280;38044;45.148;39.604;2023-01-24T01:02:48;102558.56;;;-1.68;82.13
52032;BME280;38044;45.148;39.604;2023-01-24T01:05:15;102534.94;;;-1.86;82.21
52032;BME280;38044;45.148;39.604;2023-01-24T01:07:41;102551.09;;;-1.81;82.19
52032;BME280;38044;45.148;39.604;2023-01-24T01:10:07;102513.16;;;-1.96;82.16
52032;BME280;38044;45.148;39.604;2023-01-24T01:12:33;102534.94;;;-1.86;82.08
52032;BME280;38044;45.148;39.604;2023-01-24T01:14:59;102561.69;;;-1.73;81.87
52032;BME280;38044;45.148;39.604;2023-01-24T01:17:26;102547.50;;;-1.80;82.11
52032;BME280;38044;45.148;39.604;2023-01-24T01:19:52;102534.75;;;-1.93;82.01
52032;BME280;38044;45.148;39.604;2023-01-24T01:22:19;102536.56;;;-1.93;81.96
52032;BME280;38044;45.148;39.604;2023-01-24T01:24:45;102560.00;;;-1.82;81.84
52032;BME280;38044;45.148;39.604;2023-01-24T01:27:10;102540.66;;;-1.99;81.92
52032;BME280;38044;45.148;39.604;2023-01-24T01:29:36;102498.53;;;-2.33;81.83
52032;BME280;38044;45.148;39.604;2023-01-24T01:32:02;102562.94;;;-1.93;81.96
52032;BME280;38044;45.148;39.604;2023-01-24T01:34:28;102544.63;;;-2.03;82.05
52032;BME280;38044;45.148;39.604;2023-01-24T01:36:54;102516.03;;;-2.24;82.01
52032;BME280;38044;45.148;39.604;2023-01-24T01:39:19;102461.88;;;-2.53;81.92
52032;BME280;38044;45.148;39.604;2023-01-24T01:41:46;102493.22;;;-2.41;82.10
52032;BME280;38044;45.148;39.604;2023-01-24T01:44:29;102522.31;;;-2.17;82.21
52032;BME280;38044;45.148;39.604;2023-01-24T01:52:43;102408.09;;;-2.84;81.98
52032;BME280;38044;45.148;39.604;2023-01-24T01:55:19;102559.97;;;-1.90;82.20
52032;BME280;38044;45.148;39.604;2023-01-24T01:57:47;102547.41;;;-2.05;82.23
52032;BME280;38044;45.148;39.604;2023-01-24T02:00:20;102522.97;;;-2.23;82.13
52032;BME280;38044;45.148;39.604;2023-01-24T02:02:52;102576.44;;;-1.96;81.98
52032;BME280;38044;45.148;39.604;2023-01-24T02:05:22;102463.16;;;-2.65;82.20
52032;BME280;38044;45.148;39.604;2023-01-24T02:07:59;102562.88;;;-2.01;82.17
52032;BME280;38044;45.148;39.604;2023-01-24T02:10:27;102484.59;;;-2.60;82.07
52032;BME280;38044;45.148;39.604;2023-01-24T02:13:12;102563.69;;;-2.09;82.21
52032;BME280;38044;45.148;39.604;2023-01-24T02:15:38;102562.22;;;-2.12;82.02
52032;BME280;38044;45.148;39.604;2023-01-24T02:18:22;102545.34;;;-2.19;82.16
52032;BME280;38044;45.148;39.604;2023-01-24T02:20:48;102550.81;;;-2.12;82.19
52032;BME280;38044;45.148;39.604;2023-01-24T02:28:09;102561.34;;;-2.12;82.38
52032;BME280;38044;45.148;39.604;2023-01-24T02:30:35;102575.38;;;-2.12;82.34
52032;BME280;38044;45.148;39.604;2023-01-24T02:33:19;102530.00;;;-2.32;82.28
52032;BME280;38044;45.148;39.604;2023-01-24T02:35:46;102565.97;;;-2.14;82.11
52032;BME280;38044;45.148;39.604;2023-01-24T02:38:19;102549.31;;;-2.23;82.30
52032;BME280;38044;45.148;39.604;2023-01-24T02:40:46;102537.53;;;-2.37;82.24
52032;BME280;38044;45.148;39.604;2023-01-24T02:43:16;102566.44;;;-2.19;82.45
52032;BME280;38044;45.148;39.604;2023-01-24T02:45:43;102557.72;;;-2.19;82.63
52032;BME280;38044;45.148;39.604;2023-01-24T02:48:09;102550.94;;;-2.22;82.54
52032;BME280;38044;45.148;39.604;2023-01-24T02:50:35;102484.22;;;-2.65;82.68
52032;BME280;38044;45.148;39.604;2023-01-24T02:53:21;102453.84;;;-2.85;82.40
52032;BME280;38044;45.148;39.604;2023-01-24T02:56:04;102560.34;;;-2.19;82.68
52032;BME280;38044;45.148;39.604;2023-01-24T02:58:49;102568.56;;;-2.22;82.26
52032;BME280;38044;45.148;39.604;2023-01-24T03:01:15;102528.78;;;-2.45;82.65
52032;BME280;38044;45.148;39.604;2023-01-24T03:03:43;102550.41;;;-2.34;82.57
52032;BME280;38044;45.148;39.604;2023-01-24T03:06:10;102422.09;;;-3.10;82.48
52032;BME280;38044;45.148;39.604;2023-01-24T03:08:36;102545.91;;;-2.41;82.75
52032;BME280;38044;45.148;39.604;2023-01-24T03:11:03;102537.94;;;-2.50;82.64
52032;BME280;38044;45.148;39.604;2023-01-24T03:13:29;102554.78;;;-2.42;82.46
52032;BME280;38044;45.148;39.604;2023-01-24T03:16:13;102527.03;;;-2.63;82.59
52032;BME280;38044;45.148;39.604;2023-01-24T03:18:58;102540.53;;;-2.58;82.52
52032;BME280;38044;45.148;39.604;2023-01-24T03:21:43;102465.19;;;-3.11;82.52
52032;BME280;38044;45.148;39.604;2023-01-24T03:24:27;102553.56;;;-2.56;82.50
52032;BME280;38044;45.148;39.604;2023-01-24T03:27:12;102497.84;;;-2.96;82.58
52032;BME280;38044;45.148;39.604;2023-01-24T03:29:56;102474.56;;;-3.08;82.69
52032;BME280;38044;45.148;39.604;2023-01-24T03:32:41;102570.69;;;-2.52;82.69
52032;BME280;38044;45.148;39.604;2023-01-24T03:35:25;102541.78;;;-2.70;82.62
52032;BME280;38044;45.148;39.604;2023-01-24T03:37:51;102530.81;;;-2.83;82.53
52032;BME280;38044;45.148;39.604;2023-01-24T03:40:35;102570.59;;;-2.68;82.61
52032;BME280;38044;45.148;39.604;2023-01-24T03:43:02;102453.50;;;-3.34;82.67
52032;BME280;38044;45.148;39.604;2023-01-24T03:45:34;102561.41;;;-2.64;82.76
52032;BME280;38044;45.148;39.604;2023-01-24T03:48:02;102537.44;;;-2.79;82.71
52032;BME280;38044;45.148;39.604;2023-01-24T03:50:36;102572.44;;;-2.61;82.82
52032;BME280;38044;45.148;39.604;2023-01-24T03:53:23;102498.03;;;-3.15;82.92
52032;BME280;38044;45.148;39.604;2023-01-24T03:55:57;102572.44;;;-2.61;83.07
52032;BME280;38044;45.148;39.604;2023-01-24T03:58:25;102533.50;;;-3.01;82.81
52032;BME280;38044;45.148;39.604;2023-01-24T04:00:52;102582.56;;;-2.74;82.92
52032;BME280;38044;45.148;39.604;2023-01-24T04:03:18;102594.44;;;-2.70;82.71
52032;BME280;38044;45.148;39.604;2023-01-24T04:05:46;102556.94;;;-2.90;82.84
52032;BME280;38044;45.148;39.604;2023-01-24T04:08:12;102559.13;;;-2.85;82.87
52032;BME280;38044;45.148;39.604;2023-01-24T04:10:38;102538.75;;;-3.01;82.94
52032;BME280;38044;45.148;39.604;2023-01-24T04:13:04;102587.84;;;-2.74;82.91
52032;BME280;38044;45.148;39.604;2023-01-24T04:15:31;102463.13;;;-3.61;82.62
52032;BME280;38044;45.148;39.604;2023-01-24T04:17:59;102590.41;;;-2.82;82.72
52032;BME280;38044;45.148;39.604;2023-01-24T04:20:27;102579.13;;;-2.92;82.65
52032;BME280;38044;45.148;39.604;2023-01-24T04:22:53;102590.47;;;-2.92;82.67
52032;BME280;38044;45.148;39.604;2023-01-24T04:25:20;102603.19;;;-2.87;82.67
52032;BME280;38044;45.148;39.604;2023-01-24T04:27:46;102609.56;;;-2.90;82.91
52032;BME280;38044;45.148;39.604;2023-01-24T04:30:14;102598.16;;;-2.99;82.78
52032;BME280;38044;45.148;39.604;2023-01-24T04:32:40;102576.00;;;-3.14;82.71
52032;BME280;38044;45.148;39.604;2023-01-24T04:35:07;102513.97;;;-3.52;82.74
52032;BME280;38044;45.148;39.604;2023-01-24T04:37:33;102478.97;;;-3.71;82.64
52032;BME280;38044;45.148;39.604;2023-01-24T04:39:59;102615.81;;;-2.91;82.72
52032;BME280;38044;45.148;39.604;2023-01-24T04:42:28;102617.25;;;-2.97;82.70
52032;BME280;38044;45.148;39.604;2023-01-24T04:44:53;102596.13;;;-3.05;82.54
52032;BME280;38044;45.148;39.604;2023-01-24T04:47:19;102597.03;;;-3.14;82.53
52032;BME280;38044;45.148;39.604;2023-01-24T04:49:45;102544.41;;;-3.50;82.62
52032;BME280;38044;45.148;39.604;2023-01-24T04:52:12;102643.66;;;-2.88;82.79
52032;BME280;38044;45.148;39.604;2023-01-24T04:54:39;102575.38;;;-3.26;82.66
52032;BME280;38044;45.148;39.604;2023-01-24T04:57:05;102605.00;;;-3.06;82.59
52032;BME280;38044;45.148;39.604;2023-01-24T04:59:31;102635.38;;;-2.93;82.60
52032;BME280;38044;45.148;39.604;2023-01-24T05:01:57;102644.16;;;-2.85;82.72
52032;BME280;38044;45.148;39.604;2023-01-24T05:04:23;102524.19;;;-3.49;82.22
52032;BME280;38044;45.148;39.604;2023-01-24T05:06:49;102632.72;;;-2.76;82.58
52032;BME280;38044;45.148;39.604;2023-01-24T05:09:15;102637.97;;;-2.58;82.31
52032;BME280;38044;45.148;39.604;2023-01-24T05:11:40;102522.09;;;-3.28;82.02
52032;BME280;38044;45.148;39.604;2023-01-24T05:14:10;102597.44;;;-2.65;81.64
52032;BME280;38044;45.148;39.604;2023-01-24T05:16:36;102644.25;;;-2.33;81.22
52032;BME280;38044;45.148;39.604;2023-01-24T05:19:03;102633.09;;;-2.27;81.08
52032;BME280;38044;45.148;39.604;2023-01-24T05:21:29;102636.81;;;-2.11;80.90
52032;BME280;38044;45.148;39.604;2023-01-24T05:23:55;102649.06;;;-1.68;80.24
52032;BME280;38044;45.148;39.604;2023-01-24T05:26:23;102654.31;;;-1.25;79.27
52032;BME280;38044;45.148;39.604;2023-01-24T05:28:49;102660.63;;;-1.02;78.36
52032;BME280;38044;45.148;39.604;2023-01-24T05:31:15;102609.63;;;-1.10;77.62
52032;BME280;38044;45.148;39.604;2023-01-24T05:33:41;102645.81;;;-0.62;76.98
52032;BME280;38044;45.148;39.604;2023-01-24T05:36:16;102628.81;;;-0.51;75.97
52032;BME280;38044;45.148;39.604;2023-01-24T05:38:43;102661.75;;;-0.06;75.35
52032;BME280;38044;45.148;39.604;2023-01-24T05:41:10;102632.59;;;0.18;74.06
52032;BME280;38044;45.148;39.604;2023-01-24T05:43:37;102647.91;;;0.71;73.03
52032;BME280;38044;45.148;39.604;2023-01-24T05:46:06;102646.00;;;1.33;71.07
52032;BME280;38044;45.148;39.604;2023-01-24T05:48:32;102677.66;;;2.17;69.23
52032;BME280;38044;45.148;39.604;2023-01-24T05:51:04;102666.44;;;2.81;67.15
52032;BME280;38044;45.148;39.604;2023-01-24T05:53:32;102651.66;;;3.15;65.90
52032;BME280;38044;45.148;39.604;2023-01-24T05:55:59;102657.44;;;3.75;64.20
52032;BME280;38044;45.148;39.604;2023-01-24T05:58:27;102636.59;;;4.13;62.55
52032;BME280;38044;45.148;39.604;2023-01-24T06:00:53;102661.19;;;4.63;61.03
52032;BME280;38044;45.148;39.604;2023-01-24T06:03:19;102596.84;;;4.66;59.98
52032;BME280;38044;45.148;39.604;2023-01-24T06:05:53;102673.06;;;5.62;59.09
52032;BME280;38044;45.148;39.604;2023-01-24T06:08:20;102690.69;;;5.83;58.09
52032;BME280;38044;45.148;39.604;2023-01-24T06:10:47;102582.97;;;5.44;56.87
52032;BME280;38044;45.148;39.604;2023-01-24T06:13:13;102681.16;;;6.34;56.74
52032;BME280;38044;45.148;39.604;2023-01-24T06:15:39;102567.06;;;6.02;55.50
52032;BME280;38044;45.148;39.604;2023-01-24T06:18:06;102657.03;;;6.98;55.25
52032;BME280;38044;45.148;39.604;2023-01-24T06:20:33;102662.84;;;7.45;54.18
52032;BME280;38044;45.148;39.604;2023-01-24T06:23:07;102660.88;;;7.84;52.96
52032;BME280;38044;45.148;39.604;2023-01-24T06:25:33;102665.34;;;8.09;52.75
52032;BME280;38044;45.148;39.604;2023-01-24T06:27:59;102584.53;;;7.94;52.14
52032;BME280;38044;45.148;39.604;2023-01-24T06:30:26;102590.59;;;8.38;51.66
52032;BME280;38044;45.148;39.604;2023-01-24T06:33:25;102690.19;;;9.55;51.19
52032;BME280;38044;45.148;39.604;2023-01-24T06:38:36;102666.28;;;9.42;49.21
52032;BME280;38044;45.148;39.604;2023-01-24T06:41:02;102622.06;;;8.91;50.03
52032;BME280;38044;45.148;39.604;2023-01-24T06:43:28;102677.13;;;8.45;50.51
52032;BME280;38044;45.148;39.604;2023-01-24T06:45:55;102582.69;;;6.44;52.91
52032;BME280;38044;45.148;39.604;2023-01-24T06:48:21;102668.44;;;6.29;55.06
52032;BME280;38044;45.148;39.604;2023-01-24T06:50:47;102676.25;;;7.14;55.21
52032;BME280;38044;45.148;39.604;2023-01-24T06:53:13;102652.84;;;8.03;52.70
52032;BME280;38044;45.148;39.604;2023-01-24T06:55:44;102586.53;;;8.65;50.83
52032;BME280;38044;45.148;39.604;2023-01-24T06:58:10;102621.19;;;9.44;48.97
52032;BME280;38044;45.148;39.604;2023-01-24T07:00:36;102672.34;;;9.96;47.64
52032;BME280;38044;45.148;39.604;2023-01-24T07:03:04;102607.56;;;9.45;47.71
52032;BME280;38044;45.148;39.604;2023-01-24T07:05:34;102585.13;;;9.63;48.45
52032;BME280;38044;45.148;39.604;2023-01-24T07:08:01;102685.09;;;10.65;46.98
52032;BME280;38044;45.148;39.604;2023-01-24T07:10:27;102675.31;;;10.47;46.09
52032;BME280;38044;45.148;39.604;2023-01-24T07:12:54;102639.81;;;10.33;46.26
52032;BME280;38044;45.148;39.604;2023-01-24T07:15:20;102611.81;;;10.05;46.56
52032;BME280;38044;45.148;39.604;2023-01-24T07:17:46;102703.53;;;10.73;46.27
52032;BME280;38044;45.148;39.604;2023-01-24T07:20:12;102684.22;;;11.04;45.94
52032;BME280;38044;45.148;39.604;2023-01-24T07:22:39;102600.97;;;10.69;45.96
52032;BME280;38044;45.148;39.604;2023-01-24T07:25:12;102577.47;;;10.93;44.71
52032;BME280;38044;45.148;39.604;2023-01-24T07:27:39;102696.81;;;11.49;45.67
52032;BME280;38044;45.148;39.604;2023-01-24T07:30:06;102679.06;;;11.03;45.61
52032;BME280;38044;45.148;39.604;2023-01-24T07:32:32;102689.59;;;11.21;45.27
52032;BME280;38044;45.148;39.604;2023-01-24T07:34:57;102700.41;;;11.72;45.11
52032;BME280;38044;45.148;39.604;2023-01-24T07:37:23;102686.31;;;11.65;43.63
52032;BME280;38044;45.148;39.604;2023-01-24T07:39:49;102693.56;;;11.47;44.33
52032;BME280;38044;45.148;39.604;2023-01-24T07:42:15;102681.22;;;11.52;44.73
52032;BME280;38044;45.148;39.604;2023-01-24T07:44:40;102693.38;;;12.05;44.36
52032;BME280;38044;45.148;39.604;2023-01-24T07:47:06;102614.19;;;11.72;43.63
52032;BME280;38044;45.148;39.604;2023-01-24T07:49:32;102655.00;;;11.98;43.65
52032;BME280;38044;45.148;39.604;2023-01-24T07:51:58;102594.75;;;11.70;43.55
52032;BME280;38044;45.148;39.604;2023-01-24T07:54:24;102582.66;;;11.50;43.34
52032;BME280;38044;45.148;39.604;2023-01-24T07:56:49;102599.34;;;11.69;43.67
52032;BME280;38044;45.148;39.604;2023-01-24T07:59:16;102675.41;;;12.10;43.86
52032;BME280;38044;45.148;39.604;2023-01-24T08:01:42;102544.63;;;11.30;43.57
52032;BME280;38044;45.148;39.604;2023-01-24T08:04:09;102596.94;;;11.73;43.57
52032;BME280;38044;45.148;39.604;2023-01-24T08:06:35;102704.53;;;12.35;43.60
52032;BME280;38044;45.148;39.604;2023-01-24T08:09:01;102589.13;;;11.71;43.87
52032;BME280;38044;45.148;39.604;2023-01-24T08:11:26;102671.75;;;12.44;43.23
52032;BME280;38044;45.148;39.604;2023-01-24T08:13:52;102691.19;;;12.46;42.96
52032;BME280;38044;45.148;39.604;2023-01-24T08:16:19;102669.81;;;12.17;43.61
52032;BME280;38044;45.148;39.604;2023-01-24T08:18:49;102663.56;;;12.33;42.92
52032;BME280;38044;45.148;39.604;2023-01-24T08:21:14;102580.84;;;11.78;42.89
52032;BME280;38044;45.148;39.604;2023-01-24T08:23:40;102584.34;;;11.57;43.69
52032;BME280;38044;45.148;39.604;2023-01-24T08:26:06;102680.97;;;12.26;43.38
52032;BME280;38044;45.148;39.604;2023-01-24T08:28:33;102611.88;;;11.98;43.72
52032;BME280;38044;45.148;39.604;2023-01-24T08:30:59;102666.28;;;12.38;43.47
52032;BME280;38044;45.148;39.604;2023-01-24T08:33:25;102653.56;;;12.12;43.69
52032;BME280;38044;45.148;39.604;2023-01-24T08:35:51;102597.78;;;11.90;43.49
52032;BME280;38044;45.148;39.604;2023-01-24T08:38:17;102636.69;;;12.22;43.41
52032;BME280;38044;45.148;39.604;2023-01-24T08:40:43;102658.19;;;11.94;44.02
52032;BME280;38044;45.148;39.604;2023-01-24T08:43:09;102641.00;;;12.01;44.41
52032;BME280;38044;45.148;39.604;2023-01-24T08:45:35;102629.38;;;12.17;43.97
52032;BME280;38044;45.148;39.604;2023-01-24T08:48:01;102649.59;;;12.42;43.56
52032;BME280;38044;45.148;39.604;2023-01-24T08:50:27;102650.91;;;12.61;43.42
52032;BME280;38044;45.148;39.604;2023-01-24T08:52:56;102644.47;;;12.67;42.98
52032;BME280;38044;45.148;39.604;2023-01-24T08:55:23;102625.88;;;12.44;42.79
52032;BME280;38044;45.148;39.604;2023-01-24T08:57:49;102630.72;;;12.42;42.71
52032;BME280;38044;45.148;39.604;2023-01-24T09:00:15;102633.41;;;12.42;43.24
52032;BME280;38044;45.148;39.604;2023-01-24T09:02:41;102537.25;;;11.81;43.38
52032;BME280;38044;45.148;39.604;2023-01-24T09:05:08;102652.56;;;12.40;43.24
52032;BME280;38044;45.148;39.604;2023-01-24T09:07:34;102609.53;;;12.06;43.76
52032;BME280;38044;45.148;39.604;2023-01-24T09:10:06;102528.47;;;11.69;44.23
52032;BME280;38044;45.148;39.604;2023-01-24T09:12:32;102545.28;;;11.76;43.78
52032;BME280;38044;45.148;39.604;2023-01-24T09:14:58;102552.00;;;11.95;43.64
52032;BME280;38044;45.148;39.604;2023-01-24T09:17:24;102614.28;;;12.43;43.45
52032;BME280;38044;45.148;39.604;2023-01-24T09:19:50;102630.91;;;12.57;43.22
52032;BME280;38044;45.148;39.604;2023-01-24T09:22:16;102600.72;;;12.11;43.35
52032;BME280;38044;45.148;39.604;2023-01-24T09:24:41;102619.25;;;11.85;44.02
52032;BME280;38044;45.148;39.604;2023-01-24T09:27:09;102570.31;;;11.55;44.59
52032;BME280;38044;45.148;39.604;2023-01-24T09:29:34;102535.28;;;11.55;44.23
52032;BME280;38044;45.148;39.604;2023-01-24T09:32:00;102567.31;;;11.73;44.48
52032;BME280;38044;45.148;39.604;2023-01-24T09:34:26;102588.69;;;11.97;44.45
52032;BME280;38044;45.148;39.604;2023-01-24T09:36:52;102600.88;;;12.26;44.36
52032;BME280;38044;45.148;39.604;2023-01-24T09:39:17;102591.28;;;12.35;43.73
52032;BME280;38044;45.148;39.604;2023-01-24T09:42:11;102550.88;;;12.40;43.78
52032;BME280;38044;45.148;39.604;2023-01-24T09:44:56;102603.88;;;12.52;43.59
52032;BME280;38044;45.148;39.604;2023-01-24T09:47:50;102577.47;;;12.54;44.10
52032;BME280;38044;45.148;39.604;2023-01-24T09:50:17;102606.06;;;12.55;43.87
52032;BME280;38044;45.148;39.604;2023-01-24T09:52:47;102571.94;;;12.44;43.81
52032;BME280;38044;45.148;39.604;2023-01-24T09:55:36;102570.31;;;12.43;44.20
52032;BME280;38044;45.148;39.604;2023-01-24T09:58:27;102587.16;;;12.55;44.14
52032;BME280;38044;45.148;39.604;2023-01-24T10:00:59;102572.50;;;12.46;44.62
52032;BME280;38044;45.148;39.604;2023-01-24T10:03:25;102523.75;;;12.25;43.64
52032;BME280;38044;45.148;39.604;2023-01-24T10:05:54;102552.94;;;12.06;43.78
52032;BME280;38044;45.148;39.604;2023-01-24T10:13:27;102525.34;;;11.77;45.21
52032;BME280;38044;45.148;39.604;2023-01-24T10:16:17;102558.22;;;12.45;44.90
52032;BME280;38044;45.148;39.604;2023-01-24T10:18:53;102586.31;;;12.49;44.36
52032;BME280;38044;45.148;39.604;2023-01-24T10:24:17;102566.53;;;12.16;45.08
52032;BME280;38044;45.148;39.604;2023-01-24T10:26:49;102490.75;;;11.69;44.92
52032;BME280;38044;45.148;39.604;2023-01-24T10:29:24;102577.13;;;12.23;45.00
52032;BME280;38044;45.148;39.604;2023-01-24T10:31:59;102442.84;;;11.49;44.98
52032;BME280;38044;45.148;39.604;2023-01-24T10:34:36;102537.66;;;11.90;45.35
52032;BME280;38044;45.148;39.604;2023-01-24T10:39:38;102456.09;;;11.12;46.19
52032;BME280;38044;45.148;39.604;2023-01-24T10:42:27;102563.22;;;11.87;45.74
52032;BME280;38044;45.148;39.604;2023-01-24T10:44:55;102465.00;;;10.95;46.43
52032;BME280;38044;45.148;39.604;2023-01-24T10:50:00;102459.47;;;10.34;47.63
52032;BME280;38044;45.148;39.604;2023-01-24T10:52:26;102544.72;;;10.51;48.31
52032;BME280;38044;45.148;39.604;2023-01-24T10:54:58;102442.22;;;9.61;48.59
52032;BME280;38044;45.148;39.604;2023-01-24T10:57:42;102516.53;;;9.96;49.13
52032;BME280;38044;45.148;39.604;2023-01-24T11:02:40;102523.88;;;9.37;50.30
52032;BME280;38044;45.148;39.604;2023-01-24T11:05:13;102551.66;;;9.54;50.63
52032;BME280;38044;45.148;39.604;2023-01-24T11:07:53;102527.13;;;9.15;51.22
52032;BME280;38044;45.148;39.604;2023-01-24T11:10:26;102450.75;;;8.59;51.22
52032;BME280;38044;45.148;39.604;2023-01-24T11:12:55;102543.72;;;9.12;51.68
52032;BME280;38044;45.148;39.604;2023-01-24T11:15:25;102548.72;;;9.09;51.77
52032;BME280;38044;45.148;39.604;2023-01-24T11:18:19;102458.31;;;8.62;51.59
52032;BME280;38044;45.148;39.604;2023-01-24T11:20:46;102461.53;;;8.41;52.05
52032;BME280;38044;45.148;39.604;2023-01-24T11:23:19;102562.13;;;8.97;51.91
52032;BME280;38044;45.148;39.604;2023-01-24T11:25:55;102444.38;;;8.30;52.01
52032;BME280;38044;45.148;39.604;2023-01-24T11:28:37;102550.25;;;8.93;51.76
52032;BME280;38044;45.148;39.604;2023-01-24T11:31:16;102551.13;;;8.87;51.94
52032;BME280;38044;45.148;39.604;2023-01-24T11:37:26;102546.56;;;8.75;52.72
52032;BME280;38044;45.148;39.604;2023-01-24T11:39:40;102524.75;;;8.60;52.70
52032;BME280;38044;45.148;39.604;2023-01-24T11:42:34;102504.19;;;8.42;53.03
52032;BME280;38044;45.148;39.604;2023-01-24T11:48:25;102553.63;;;8.58;52.77
52032;BME280;38044;45.148;39.604;2023-01-24T11:51:09;102412.63;;;7.73;52.80
52032;BME280;38044;45.148;39.604;2023-01-24T11:56:18;102452.56;;;7.86;53.00
52032;BME280;38044;45.148;39.604;2023-01-24T11:59:05;102462.13;;;7.82;53.28
52032;BME280;38044;45.148;39.604;2023-01-24T12:02:15;102530.63;;;8.20;53.36
52032;BME280;38044;45.148;39.604;2023-01-24T12:04:59;102527.09;;;8.08;53.48
52032;BME280;38044;45.148;39.604;2023-01-24T12:19:35;102517.69;;;7.68;54.54
52032;BME280;38044;45.148;39.604;2023-01-24T12:22:16;102555.47;;;7.79;54.75
52032;BME280;38044;45.148;39.604;2023-01-24T12:24:47;102433.28;;;6.92;54.78
52032;BME280;38044;45.148;39.604;2023-01-24T12:27:19;102557.47;;;7.65;55.01
52032;BME280;38044;45.148;39.604;2023-01-24T12:30:29;102531.28;;;7.49;54.60
52032;BME280;38044;45.148;39.604;2023-01-24T12:32:57;102424.03;;;6.70;55.03
52032;BME280;38044;45.148;39.604;2023-01-24T12:35:32;102564.38;;;7.54;55.23
52032;BME280;38044;45.148;39.604;2023-01-24T12:38:05;102555.38;;;7.49;55.06
52032;BME280;38044;45.148;39.604;2023-01-24T12:40:50;102538.63;;;7.35;54.73
52032;BME280;38044;45.148;39.604;2023-01-24T12:46:36;102529.31;;;7.19;54.78
52032;BME280;38044;45.148;39.604;2023-01-24T12:49:07;102543.00;;;7.29;55.14
52032;BME280;38044;45.148;39.604;2023-01-24T12:54:28;102477.53;;;6.88;55.00
52032;BME280;38044;45.148;39.604;2023-01-24T12:59:39;102443.97;;;6.42;54.82
52032;BME280;38044;45.148;39.604;2023-01-24T13:02:27;102546.63;;;7.16;55.13
52032;BME280;38044;45.148;39.604;2023-01-24T13:08:15;102554.97;;;7.02;54.67
52032;BME280;38044;45.148;39.604;2023-01-24T13:16:58;102542.78;;;6.81;55.37
52032;BME280;38044;45.148;39.604;2023-01-24T13:25:27;102559.47;;;6.76;55.93
52032;BME280;38044;45.148;39.604;2023-01-24T13:31:16;102529.25;;;6.44;56.38
52032;BME280;38044;45.148;39.604;2023-01-24T13:33:41;102464.41;;;5.98;56.42
52032;BME280;38044;45.148;39.604;2023-01-24T13:36:25;102556.97;;;6.49;56.85
52032;BME280;38044;45.148;39.604;2023-01-24T13:38:53;102528.78;;;6.22;56.75
52032;BME280;38044;45.148;39.604;2023-01-24T13:44:24;102530.47;;;6.09;57.29
52032;BME280;38044;45.148;39.604;2023-01-24T13:54:59;102543.91;;;5.76;58.13
52032;BME280;38044;45.148;39.604;2023-01-24T13:57:29;102517.47;;;5.55;58.39
52032;BME280;38044;45.148;39.604;2023-01-24T14:08:31;102543.59;;;5.39;59.14
52032;BME280;38044;45.148;39.604;2023-01-24T14:19:10;102535.59;;;4.80;60.16
52032;BME280;38044;45.148;39.604;2023-01-24T14:24:37;102515.91;;;4.67;60.32
52032;BME280;38044;45.148;39.604;2023-01-24T14:27:45;102528.00;;;4.63;60.54
52032;BME280;38044;45.148;39.604;2023-01-24T14:35:35;102545.19;;;4.47;61.51
52032;BME280;38044;45.148;39.604;2023-01-24T14:38:16;102528.13;;;4.22;61.55
52032;BME280;38044;45.148;39.604;2023-01-24T14:40:49;102518.03;;;4.04;61.56
52032;BME280;38044;45.148;39.604;2023-01-24T14:43:15;102551.25;;;4.21;61.19
52032;BME280;38044;45.148;39.604;2023-01-24T14:45:41;102425.81;;;3.28;61.69
52032;BME280;38044;45.148;39.604;2023-01-24T14:48:16;102547.25;;;3.97;62.38
52032;BME280;38044;45.148;39.604;2023-01-24T14:50:56;102520.53;;;3.71;62.55
52032;BME280;38044;45.148;39.604;2023-01-24T14:53:27;102543.28;;;3.80;62.69